Terminal Aerodrome Forecast
Issued by NWS

Home | Current Version | Previous Version | Text Only | Print | Product List | Glossary On
Versions: 1 2 3 4 5 6 7 8 9 10 11 12 13
865
FTUS46 KMFR 301739
TAFLMT
TAF
KLMT 301739Z 3018/3118 33025G31KT P6SM VCSH SCT040
     FM301900 33029G37KT P6SM BKN050
     FM310300 33017KT P6SM BKN040
     FM310900 33008KT P6SM FEW040=

USA.gov is the U.S. government's official web portal to all federal, state and local government web resources and services.